createdAt,value
2022-11-13T00:05:03.908Z,10.52
2022-11-13T00:10:21.452Z,10.47
2022-11-13T00:15:38.721Z,10.43
2022-11-13T00:20:57.935Z,10.14
2022-11-13T00:26:17.664Z,10.03
2022-11-13T00:31:35.098Z,10.02
2022-11-13T00:36:53.644Z,10.03
2022-11-13T00:42:10.567Z,10.04
2022-11-13T00:47:27.560Z,10.02
2022-11-13T00:52:46.704Z,10.02
2022-11-13T00:58:04.985Z,10.08
2022-11-13T01:03:22.144Z,10.11
2022-11-13T01:08:40.677Z,10.09
2022-11-13T01:13:58.311Z,9.97
2022-11-13T01:19:15.530Z,9.87
2022-11-13T01:24:33.999Z,9.84
2022-11-13T01:29:51.050Z,9.76
2022-11-13T01:35:08.884Z,9.73
2022-11-13T01:40:27.327Z,9.78
2022-11-13T01:46:15.522Z,9.86
2022-11-13T01:51:36.288Z,9.85
2022-11-13T01:56:56.963Z,9.83
2022-11-13T02:02:14.264Z,9.78
2022-11-13T02:07:31.511Z,9.63
2022-11-13T02:12:52.653Z,9.67
2022-11-13T02:18:12.304Z,9.77
2022-11-13T02:23:37.470Z,9.86
2022-11-13T02:28:56.106Z,9.93
2022-11-13T02:34:13.078Z,10.02
2022-11-13T02:39:30.417Z,10.06
2022-11-13T02:44:49.083Z,10.00
2022-11-13T02:50:07.695Z,9.92
2022-11-13T02:55:24.949Z,9.97
2022-11-13T03:00:43.470Z,10.05
2022-11-13T03:06:00.899Z,10.06
2022-11-13T03:11:18.252Z,10.01
2022-11-13T03:16:37.263Z,9.97
2022-11-13T03:21:54.493Z,10.02
2022-11-13T03:27:11.428Z,10.05
2022-11-13T03:32:30.030Z,10.08
2022-11-13T03:37:46.899Z,10.05
2022-11-13T03:43:04.288Z,9.96
2022-11-13T03:48:23.208Z,9.78
2022-11-13T03:53:40.591Z,9.82
2022-11-13T03:58:57.593Z,9.84
2022-11-13T04:04:16.951Z,9.86
2022-11-13T04:09:34.407Z,9.89
2022-11-13T04:14:51.345Z,9.90
2022-11-13T04:20:10.980Z,9.95
2022-11-13T04:25:28.678Z,9.98
2022-11-13T04:30:45.813Z,10.00
2022-11-13T04:36:05.021Z,9.96
2022-11-13T04:41:40.217Z,9.93
2022-11-13T04:46:57.604Z,10.00
2022-11-13T04:52:16.482Z,10.11
2022-11-13T04:57:33.620Z,10.06
2022-11-13T05:02:50.883Z,10.10
2022-11-13T05:08:10.542Z,10.10
2022-11-13T05:13:27.720Z,10.17
2022-11-13T05:18:44.784Z,10.29
2022-11-13T05:24:03.547Z,10.39
2022-11-13T05:29:20.791Z,10.50
2022-11-13T05:34:38.023Z,10.60
2022-11-13T05:39:56.602Z,10.69
2022-11-13T05:45:14.080Z,10.79
2022-11-13T05:50:31.315Z,10.84
2022-11-13T05:55:49.825Z,10.77
2022-11-13T06:01:10.159Z,10.67
2022-11-13T06:06:28.596Z,10.66
2022-11-13T06:11:47.222Z,10.66
2022-11-13T06:17:04.172Z,10.69
2022-11-13T06:22:21.401Z,10.89
2022-11-13T06:27:39.661Z,11.06
2022-11-13T06:32:56.740Z,11.22
2022-11-13T06:38:13.834Z,11.18
2022-11-13T06:43:33.177Z,11.30
2022-11-13T06:48:51.091Z,11.40
2022-11-13T06:54:08.622Z,11.31
2022-11-13T06:59:27.499Z,11.44
2022-11-13T07:04:44.675Z,11.49
2022-11-13T07:10:01.800Z,11.64
2022-11-13T07:15:20.232Z,11.72
2022-11-13T07:20:37.436Z,11.81
2022-11-13T07:25:55.477Z,11.89
2022-11-13T07:31:15.469Z,11.90
2022-11-13T07:36:32.917Z,12.00
2022-11-13T07:41:50.041Z,11.92
2022-11-13T07:47:08.400Z,11.82
2022-11-13T07:52:25.349Z,12.04
2022-11-13T07:57:42.616Z,12.09
2022-11-13T08:03:06.236Z,12.23
2022-11-13T08:08:23.445Z,12.34
2022-11-13T08:13:40.702Z,12.32
2022-11-13T08:18:59.153Z,12.57
2022-11-13T08:24:16.211Z,12.73
2022-11-13T08:29:35.504Z,12.80
2022-11-13T08:34:54.012Z,12.77
2022-11-13T08:40:12.459Z,12.85
2022-11-13T08:45:31.053Z,12.91
2022-11-13T08:50:52.938Z,13.01
2022-11-13T08:56:09.963Z,13.03
2022-11-13T09:01:27.425Z,13.26
2022-11-13T09:06:46.146Z,13.29
2022-11-13T09:12:03.411Z,13.51
2022-11-13T09:17:20.501Z,13.61
2022-11-13T09:22:39.371Z,13.61
2022-11-13T09:27:58.026Z,13.65
2022-11-13T09:33:15.660Z,13.63
2022-11-13T09:38:34.558Z,13.93
2022-11-13T09:43:59.340Z,14.11
2022-11-13T09:49:19.024Z,14.33
2022-11-13T09:54:37.818Z,14.38
2022-11-13T10:00:00.977Z,14.16
2022-11-13T10:05:22.746Z,14.43
2022-11-13T10:10:55.639Z,14.18
2022-11-13T10:16:30.011Z,14.11
2022-11-13T10:22:07.554Z,14.04
2022-11-13T10:27:31.932Z,14.09
2022-11-13T10:32:49.378Z,14.24
2022-11-13T10:38:10.307Z,14.12
2022-11-13T10:43:29.466Z,14.33
2022-11-13T10:48:46.720Z,14.44
2022-11-13T10:54:21.685Z,14.89
2022-11-13T10:59:42.842Z,14.91
2022-11-13T11:05:04.500Z,14.75
2022-11-13T11:10:24.969Z,14.88
2022-11-13T11:15:49.237Z,15.30
2022-11-13T11:21:11.054Z,15.31
2022-11-13T11:26:33.622Z,15.54
2022-11-13T11:31:56.056Z,15.30
2022-11-13T11:37:16.022Z,15.41
2022-11-13T11:42:40.606Z,15.52
2022-11-13T11:48:01.946Z,15.59
2022-11-13T11:53:29.817Z,15.12
2022-11-13T11:59:04.416Z,15.09
2022-11-13T12:04:40.327Z,15.29
2022-11-13T12:10:10.315Z,15.39
2022-11-13T12:15:37.234Z,15.50
2022-11-13T12:21:06.278Z,15.51
2022-11-13T12:26:28.557Z,15.55
2022-11-13T12:31:56.215Z,15.60
2022-11-13T12:37:18.895Z,15.74
2022-11-13T12:42:40.906Z,15.91
2022-11-13T12:48:08.623Z,16.13
2022-11-13T12:53:29.155Z,16.22
2022-11-13T12:59:24.215Z,16.58
2022-11-13T13:04:59.787Z,17.02
2022-11-13T13:10:26.242Z,17.16
2022-11-13T13:15:47.571Z,17.49
2022-11-13T13:21:08.652Z,18.01
2022-11-13T13:26:30.132Z,18.27
2022-11-13T13:31:53.946Z,18.47
2022-11-13T13:37:22.835Z,19.02
2022-11-13T13:42:57.130Z,19.56
2022-11-13T13:48:18.086Z,19.90
2022-11-13T13:53:37.601Z,20.07
2022-11-13T13:58:56.367Z,20.15
2022-11-13T14:04:18.580Z,20.55
2022-11-13T14:09:35.853Z,20.61
2022-11-13T14:14:54.560Z,20.41
2022-11-13T14:20:13.948Z,20.36
2022-11-13T14:25:31.169Z,20.26
2022-11-13T14:30:57.541Z,20.10
2022-11-13T14:36:16.399Z,19.91
2022-11-13T14:41:36.573Z,19.71
2022-11-13T14:47:02.733Z,19.28
2022-11-13T14:52:28.181Z,18.88
2022-11-13T14:57:49.632Z,18.48
2022-11-13T15:03:07.948Z,18.07
2022-11-13T15:08:25.529Z,17.67
2022-11-13T15:13:43.380Z,17.26
2022-11-13T15:19:03.916Z,16.91
2022-11-13T15:24:20.967Z,16.56
2022-11-13T15:29:38.266Z,16.24
2022-11-13T15:34:56.535Z,15.96
2022-11-13T15:40:14.842Z,15.67
2022-11-13T15:45:32.075Z,15.45
2022-11-13T15:50:50.912Z,15.21
2022-11-13T15:56:09.005Z,15.22
2022-11-13T16:01:26.494Z,15.01
2022-11-13T16:06:46.147Z,14.97
2022-11-13T16:12:04.043Z,14.78
2022-11-13T16:17:21.355Z,14.62
2022-11-13T16:22:40.152Z,14.39
2022-11-13T16:27:57.535Z,14.21
2022-11-13T16:33:14.701Z,14.05
2022-11-13T16:38:36.174Z,13.89
2022-11-13T16:43:53.409Z,13.75
2022-11-13T16:49:18.882Z,13.61
2022-11-13T16:54:37.547Z,13.51
2022-11-13T16:59:55.172Z,13.41
2022-11-13T17:05:14.225Z,13.29
2022-11-13T17:10:33.577Z,13.15
2022-11-13T17:15:50.748Z,13.03
2022-11-13T17:21:07.896Z,13.63
2022-11-13T17:26:27.263Z,13.52
2022-11-13T17:31:44.397Z,13.25
2022-11-13T17:37:02.137Z,13.04
2022-11-13T17:42:20.934Z,12.86
2022-11-13T17:47:38.432Z,12.82
2022-11-13T17:52:55.927Z,12.82
2022-11-13T17:58:14.194Z,12.69
2022-11-13T18:03:31.599Z,12.53
2022-11-13T18:08:49.154Z,12.40
2022-11-13T18:14:07.539Z,12.31
2022-11-13T18:19:24.934Z,12.21
2022-11-13T18:24:44.329Z,12.13
2022-11-13T18:30:03.355Z,12.04
2022-11-13T18:35:20.494Z,11.94
2022-11-13T18:40:39.972Z,11.85
2022-11-13T18:46:00.070Z,11.81
2022-11-13T18:51:19.490Z,11.73
2022-11-13T18:56:36.889Z,11.63
2022-11-13T19:01:55.770Z,11.55
2022-11-13T19:07:13.403Z,11.49
2022-11-13T19:12:30.727Z,11.42
2022-11-13T19:17:52.790Z,11.32
2022-11-13T19:23:10.370Z,11.23
2022-11-13T19:28:28.285Z,11.16
2022-11-13T19:33:47.746Z,11.13
2022-11-13T19:39:05.720Z,11.07
2022-11-13T19:44:23.347Z,11.01
2022-11-13T19:49:42.704Z,10.95
2022-11-13T19:55:01.507Z,10.90
2022-11-13T20:00:20.228Z,10.85
2022-11-13T20:05:44.250Z,10.78
2022-11-13T20:11:23.521Z,10.71
2022-11-13T20:16:42.289Z,10.67
2022-11-13T20:22:02.606Z,10.64
2022-11-13T20:27:20.044Z,10.58
2022-11-13T20:32:38.216Z,10.54
2022-11-13T20:37:58.611Z,10.50
2022-11-13T20:43:18.835Z,10.48
2022-11-13T20:48:36.607Z,10.47
2022-11-13T20:53:57.275Z,10.47
2022-11-13T20:59:16.424Z,10.44
2022-11-13T21:04:34.569Z,10.34
2022-11-13T21:09:54.285Z,10.36
2022-11-13T21:15:12.991Z,10.40
2022-11-13T21:20:30.328Z,10.42
2022-11-13T21:26:00.078Z,10.43
2022-11-13T21:31:20.652Z,10.50
2022-11-13T21:36:38.525Z,10.55
2022-11-13T21:41:57.225Z,10.59
2022-11-13T21:47:16.167Z,10.61
2022-11-13T21:52:34.005Z,10.64
2022-11-13T21:57:52.487Z,10.67
2022-11-13T22:03:10.041Z,10.65
2022-11-13T22:08:27.976Z,10.64
2022-11-13T22:13:47.041Z,10.65
2022-11-13T22:19:05.792Z,10.64
2022-11-13T22:24:23.373Z,10.62
2022-11-13T22:29:41.992Z,10.60
2022-11-13T22:34:59.584Z,10.57
2022-11-13T22:40:16.721Z,10.56
2022-11-13T22:45:35.994Z,10.54
2022-11-13T22:50:53.547Z,10.48
2022-11-13T22:56:12.985Z,10.42
2022-11-13T23:01:33.184Z,10.42
2022-11-13T23:06:50.229Z,10.42
2022-11-13T23:12:07.447Z,10.40
2022-11-13T23:17:26.188Z,10.39
2022-11-13T23:22:43.731Z,10.37
2022-11-13T23:28:03.152Z,10.33
2022-11-13T23:33:22.120Z,10.34
2022-11-13T23:38:39.399Z,10.33
2022-11-13T23:44:12.295Z,10.27
2022-11-13T23:49:30.907Z,10.23
2022-11-13T23:54:48.457Z,10.08
